sensor_id;sensor_type;location;lat;lon;timestamp;P1;durP1;ratioP1;P2;durP2;ratioP2
78458;SDS011;67753;42.684;23.330;2023-02-21T00:01:36;12.30;;;9.17;;
78458;SDS011;67753;42.684;23.330;2023-02-21T00:03:55;11.80;;;9.20;;
78458;SDS011;67753;42.684;23.330;2023-02-21T00:06:14;12.67;;;9.83;;
78458;SDS011;67753;42.684;23.330;2023-02-21T00:08:39;12.77;;;9.03;;
78458;SDS011;67753;42.684;23.330;2023-02-21T00:10:59;12.80;;;8.60;;
78458;SDS011;67753;42.684;23.330;2023-02-21T00:13:18;9.67;;;8.23;;
78458;SDS011;67753;42.684;23.330;2023-02-21T00:15:37;10.77;;;9.43;;
78458;SDS011;67753;42.684;23.330;2023-02-21T00:17:56;16.03;;;12.97;;
78458;SDS011;67753;42.684;23.330;2023-02-21T00:20:15;11.73;;;10.53;;
78458;SDS011;67753;42.684;23.330;2023-02-21T00:22:35;12.93;;;9.83;;
78458;SDS011;67753;42.684;23.330;2023-02-21T00:24:55;10.50;;;9.40;;
78458;SDS011;67753;42.684;23.330;2023-02-21T00:27:15;10.10;;;8.83;;
78458;SDS011;67753;42.684;23.330;2023-02-21T00:29:34;12.23;;;9.47;;
78458;SDS011;67753;42.684;23.330;2023-02-21T00:31:54;11.20;;;9.17;;
78458;SDS011;67753;42.684;23.330;2023-02-21T00:34:13;10.70;;;8.87;;
78458;SDS011;67753;42.684;23.330;2023-02-21T00:36:32;11.57;;;9.33;;
78458;SDS011;67753;42.684;23.330;2023-02-21T00:38:51;14.17;;;9.97;;
78458;SDS011;67753;42.684;23.330;2023-02-21T00:41:12;10.63;;;9.53;;
78458;SDS011;67753;42.684;23.330;2023-02-21T00:43:32;11.33;;;9.60;;
78458;SDS011;67753;42.684;23.330;2023-02-21T00:45:53;13.13;;;9.93;;
78458;SDS011;67753;42.684;23.330;2023-02-21T00:48:12;11.47;;;9.27;;
78458;SDS011;67753;42.684;23.330;2023-02-21T00:50:37;9.60;;;8.23;;
78458;SDS011;67753;42.684;23.330;2023-02-21T00:52:56;14.53;;;10.53;;
78458;SDS011;67753;42.684;23.330;2023-02-21T00:55:16;12.53;;;9.90;;
78458;SDS011;67753;42.684;23.330;2023-02-21T00:57:38;10.00;;;8.57;;
78458;SDS011;67753;42.684;23.330;2023-02-21T00:59:57;10.63;;;9.10;;
78458;SDS011;67753;42.684;23.330;2023-02-21T01:02:17;11.23;;;9.20;;
78458;SDS011;67753;42.684;23.330;2023-02-21T01:04:37;11.03;;;9.27;;
78458;SDS011;67753;42.684;23.330;2023-02-21T01:06:55;11.53;;;8.70;;
78458;SDS011;67753;42.684;23.330;2023-02-21T01:09:14;14.40;;;9.80;;
78458;SDS011;67753;42.684;23.330;2023-02-21T01:11:33;10.53;;;9.00;;
78458;SDS011;67753;42.684;23.330;2023-02-21T01:13:54;12.50;;;9.83;;
78458;SDS011;67753;42.684;23.330;2023-02-21T01:16:13;13.80;;;9.47;;
78458;SDS011;67753;42.684;23.330;2023-02-21T01:18:33;10.00;;;8.77;;
78458;SDS011;67753;42.684;23.330;2023-02-21T01:20:52;10.63;;;9.03;;
78458;SDS011;67753;42.684;23.330;2023-02-21T01:23:11;10.30;;;8.53;;
78458;SDS011;67753;42.684;23.330;2023-02-21T01:25:32;9.87;;;8.17;;
78458;SDS011;67753;42.684;23.330;2023-02-21T01:27:52;8.77;;;7.90;;
78458;SDS011;67753;42.684;23.330;2023-02-21T01:30:13;9.10;;;8.13;;
78458;SDS011;67753;42.684;23.330;2023-02-21T01:32:32;7.83;;;7.03;;
78458;SDS011;67753;42.684;23.330;2023-02-21T01:34:51;10.37;;;7.67;;
78458;SDS011;67753;42.684;23.330;2023-02-21T01:37:11;8.30;;;7.27;;
78458;SDS011;67753;42.684;23.330;2023-02-21T01:39:30;9.20;;;7.53;;
78458;SDS011;67753;42.684;23.330;2023-02-21T01:41:49;7.53;;;6.73;;
78458;SDS011;67753;42.684;23.330;2023-02-21T01:44:26;9.40;;;7.33;;
78458;SDS011;67753;42.684;23.330;2023-02-21T01:46:50;7.90;;;7.10;;
78458;SDS011;67753;42.684;23.330;2023-02-21T01:49:10;8.63;;;7.73;;
78458;SDS011;67753;42.684;23.330;2023-02-21T01:51:33;8.07;;;7.27;;
78458;SDS011;67753;42.684;23.330;2023-02-21T01:53:56;8.90;;;7.10;;
78458;SDS011;67753;42.684;23.330;2023-02-21T01:56:16;7.40;;;6.50;;
78458;SDS011;67753;42.684;23.330;2023-02-21T01:58:36;7.87;;;6.00;;
78458;SDS011;67753;42.684;23.330;2023-02-21T02:00:55;7.00;;;6.30;;
78458;SDS011;67753;42.684;23.330;2023-02-21T02:03:17;7.53;;;6.47;;
78458;SDS011;67753;42.684;23.330;2023-02-21T02:05:38;8.40;;;6.43;;
78458;SDS011;67753;42.684;23.330;2023-02-21T02:07:59;7.37;;;6.37;;
78458;SDS011;67753;42.684;23.330;2023-02-21T02:10:19;8.50;;;6.57;;
78458;SDS011;67753;42.684;23.330;2023-02-21T02:12:45;9.30;;;6.17;;
78458;SDS011;67753;42.684;23.330;2023-02-21T02:15:04;6.20;;;5.60;;
78458;SDS011;67753;42.684;23.330;2023-02-21T02:17:17;6.90;;;6.20;;
78458;SDS011;67753;42.684;23.330;2023-02-21T02:19:54;8.07;;;6.00;;
78458;SDS011;67753;42.684;23.330;2023-02-21T02:22:24;6.90;;;6.20;;
78458;SDS011;67753;42.684;23.330;2023-02-21T02:25:03;5.83;;;5.33;;
78458;SDS011;67753;42.684;23.330;2023-02-21T02:27:25;9.30;;;5.57;;
78458;SDS011;67753;42.684;23.330;2023-02-21T02:29:58;6.00;;;5.10;;
78458;SDS011;67753;42.684;23.330;2023-02-21T02:32:34;7.83;;;4.87;;
78458;SDS011;67753;42.684;23.330;2023-02-21T02:34:48;5.57;;;5.07;;
78458;SDS011;67753;42.684;23.330;2023-02-21T02:36:58;7.07;;;5.27;;
78458;SDS011;67753;42.684;23.330;2023-02-21T02:39:12;6.00;;;5.20;;
78458;SDS011;67753;42.684;23.330;2023-02-21T02:41:23;6.20;;;4.93;;
78458;SDS011;67753;42.684;23.330;2023-02-21T02:43:35;5.60;;;5.10;;
78458;SDS011;67753;42.684;23.330;2023-02-21T02:45:42;5.07;;;4.57;;
78458;SDS011;67753;42.684;23.330;2023-02-21T02:47:51;10.97;;;5.10;;
78458;SDS011;67753;42.684;23.330;2023-02-21T02:50:07;5.30;;;4.80;;
78458;SDS011;67753;42.684;23.330;2023-02-21T02:52:11;5.93;;;4.90;;
78458;SDS011;67753;42.684;23.330;2023-02-21T02:54:13;4.80;;;4.40;;
78458;SDS011;67753;42.684;23.330;2023-02-21T02:56:15;5.10;;;4.60;;
78458;SDS011;67753;42.684;23.330;2023-02-21T02:58:18;6.43;;;5.10;;
78458;SDS011;67753;42.684;23.330;2023-02-21T03:00:22;5.47;;;4.97;;
78458;SDS011;67753;42.684;23.330;2023-02-21T03:05:02;4.87;;;4.33;;
78458;SDS011;67753;42.684;23.330;2023-02-21T03:07:16;7.40;;;5.00;;
78458;SDS011;67753;42.684;23.330;2023-02-21T03:09:28;5.53;;;5.00;;
78458;SDS011;67753;42.684;23.330;2023-02-21T03:11:34;5.13;;;4.60;;
78458;SDS011;67753;42.684;23.330;2023-02-21T03:13:46;4.77;;;4.10;;
78458;SDS011;67753;42.684;23.330;2023-02-21T03:15:53;4.30;;;3.90;;
78458;SDS011;67753;42.684;23.330;2023-02-21T03:18:00;4.47;;;4.07;;
78458;SDS011;67753;42.684;23.330;2023-02-21T03:20:07;4.10;;;3.80;;
78458;SDS011;67753;42.684;23.330;2023-02-21T03:22:15;4.93;;;4.27;;
78458;SDS011;67753;42.684;23.330;2023-02-21T03:24:21;4.23;;;3.77;;
78458;SDS011;67753;42.684;23.330;2023-02-21T03:26:24;4.87;;;4.03;;
78458;SDS011;67753;42.684;23.330;2023-02-21T03:28:27;4.23;;;3.37;;
78458;SDS011;67753;42.684;23.330;2023-02-21T03:30:32;4.63;;;3.73;;
78458;SDS011;67753;42.684;23.330;2023-02-21T03:32:36;4.93;;;3.73;;
78458;SDS011;67753;42.684;23.330;2023-02-21T03:34:41;4.53;;;3.80;;
78458;SDS011;67753;42.684;23.330;2023-02-21T03:36:47;4.53;;;4.13;;
78458;SDS011;67753;42.684;23.330;2023-02-21T03:38:49;4.73;;;4.27;;
78458;SDS011;67753;42.684;23.330;2023-02-21T03:40:51;4.40;;;4.00;;
78458;SDS011;67753;42.684;23.330;2023-02-21T03:42:53;4.33;;;3.93;;
78458;SDS011;67753;42.684;23.330;2023-02-21T03:44:57;4.07;;;3.70;;
78458;SDS011;67753;42.684;23.330;2023-02-21T03:46:59;4.10;;;3.70;;
78458;SDS011;67753;42.684;23.330;2023-02-21T03:49:01;5.50;;;3.70;;
78458;SDS011;67753;42.684;23.330;2023-02-21T03:51:03;5.50;;;3.70;;
78458;SDS011;67753;42.684;23.330;2023-02-21T03:53:07;4.40;;;4.00;;
78458;SDS011;67753;42.684;23.330;2023-02-21T03:55:10;5.07;;;3.77;;
78458;SDS011;67753;42.684;23.330;2023-02-21T03:57:12;4.53;;;3.67;;
78458;SDS011;67753;42.684;23.330;2023-02-21T03:59:18;3.67;;;3.37;;
78458;SDS011;67753;42.684;23.330;2023-02-21T04:01:20;3.57;;;3.27;;
78458;SDS011;67753;42.684;23.330;2023-02-21T04:03:22;4.07;;;3.63;;
78458;SDS011;67753;42.684;23.330;2023-02-21T04:05:23;6.20;;;3.73;;
78458;SDS011;67753;42.684;23.330;2023-02-21T04:07:25;4.97;;;3.50;;
78458;SDS011;67753;42.684;23.330;2023-02-21T04:09:29;4.00;;;3.60;;
78458;SDS011;67753;42.684;23.330;2023-02-21T04:11:31;5.50;;;3.47;;
78458;SDS011;67753;42.684;23.330;2023-02-21T04:13:33;3.73;;;3.37;;
78458;SDS011;67753;42.684;23.330;2023-02-21T04:15:35;5.13;;;3.80;;
78458;SDS011;67753;42.684;23.330;2023-02-21T04:17:37;4.93;;;4.00;;
78458;SDS011;67753;42.684;23.330;2023-02-21T04:19:39;5.20;;;3.70;;
78458;SDS011;67753;42.684;23.330;2023-02-21T04:21:41;5.47;;;3.87;;
78458;SDS011;67753;42.684;23.330;2023-02-21T04:23:43;5.50;;;3.80;;
78458;SDS011;67753;42.684;23.330;2023-02-21T04:25:46;4.20;;;3.90;;
78458;SDS011;67753;42.684;23.330;2023-02-21T04:27:48;4.30;;;3.90;;
78458;SDS011;67753;42.684;23.330;2023-02-21T04:29:50;4.40;;;3.83;;
78458;SDS011;67753;42.684;23.330;2023-02-21T04:31:52;4.10;;;3.80;;
78458;SDS011;67753;42.684;23.330;2023-02-21T04:33:54;6.40;;;4.17;;
78458;SDS011;67753;42.684;23.330;2023-02-21T04:35:56;7.90;;;4.93;;
78458;SDS011;67753;42.684;23.330;2023-02-21T04:37:59;5.50;;;4.23;;
78458;SDS011;67753;42.684;23.330;2023-02-21T04:40:00;7.40;;;4.70;;
78458;SDS011;67753;42.684;23.330;2023-02-21T04:42:06;6.10;;;4.27;;
78458;SDS011;67753;42.684;23.330;2023-02-21T04:44:08;8.37;;;4.53;;
78458;SDS011;67753;42.684;23.330;2023-02-21T04:46:10;4.87;;;4.30;;
78458;SDS011;67753;42.684;23.330;2023-02-21T04:48:15;7.07;;;4.30;;
78458;SDS011;67753;42.684;23.330;2023-02-21T04:50:18;5.37;;;4.20;;
78458;SDS011;67753;42.684;23.330;2023-02-21T04:52:20;5.70;;;4.93;;
78458;SDS011;67753;42.684;23.330;2023-02-21T04:54:22;4.60;;;4.20;;
78458;SDS011;67753;42.684;23.330;2023-02-21T04:56:24;17.20;;;4.73;;
78458;SDS011;67753;42.684;23.330;2023-02-21T04:58:30;6.07;;;5.30;;
78458;SDS011;67753;42.684;23.330;2023-02-21T05:00:32;7.10;;;5.37;;
78458;SDS011;67753;42.684;23.330;2023-02-21T05:02:33;8.63;;;6.17;;
78458;SDS011;67753;42.684;23.330;2023-02-21T05:04:36;8.23;;;6.00;;
78458;SDS011;67753;42.684;23.330;2023-02-21T05:06:38;6.43;;;5.50;;
78458;SDS011;67753;42.684;23.330;2023-02-21T05:08:40;8.07;;;7.27;;
78458;SDS011;67753;42.684;23.330;2023-02-21T05:10:42;26.60;;;23.80;;
78458;SDS011;67753;42.684;23.330;2023-02-21T05:12:45;48.73;;;43.90;;
78458;SDS011;67753;42.684;23.330;2023-02-21T05:14:49;33.30;;;30.03;;
78458;SDS011;67753;42.684;23.330;2023-02-21T05:16:50;13.07;;;11.77;;
78458;SDS011;67753;42.684;23.330;2023-02-21T05:18:52;11.77;;;10.57;;
78458;SDS011;67753;42.684;23.330;2023-02-21T05:20:54;14.43;;;12.20;;
78458;SDS011;67753;42.684;23.330;2023-02-21T05:22:56;13.10;;;11.00;;
78458;SDS011;67753;42.684;23.330;2023-02-21T05:24:58;13.20;;;10.47;;
78458;SDS011;67753;42.684;23.330;2023-02-21T05:27:00;10.00;;;8.87;;
78458;SDS011;67753;42.684;23.330;2023-02-21T05:29:02;12.23;;;9.10;;
78458;SDS011;67753;42.684;23.330;2023-02-21T05:31:07;12.43;;;9.97;;
78458;SDS011;67753;42.684;23.330;2023-02-21T05:33:09;11.43;;;8.90;;
78458;SDS011;67753;42.684;23.330;2023-02-21T05:35:10;11.43;;;7.67;;
78458;SDS011;67753;42.684;23.330;2023-02-21T05:37:16;15.20;;;7.53;;
78458;SDS011;67753;42.684;23.330;2023-02-21T05:39:20;12.10;;;6.70;;
78458;SDS011;67753;42.684;23.330;2023-02-21T05:41:22;7.30;;;5.83;;
78458;SDS011;67753;42.684;23.330;2023-02-21T05:43:24;7.47;;;5.60;;
78458;SDS011;67753;42.684;23.330;2023-02-21T05:45:25;8.47;;;5.47;;
78458;SDS011;67753;42.684;23.330;2023-02-21T05:47:29;8.87;;;5.50;;
78458;SDS011;67753;42.684;23.330;2023-02-21T05:49:30;6.77;;;5.40;;
78458;SDS011;67753;42.684;23.330;2023-02-21T05:51:33;11.50;;;6.53;;
78458;SDS011;67753;42.684;23.330;2023-02-21T05:53:36;9.53;;;6.03;;
78458;SDS011;67753;42.684;23.330;2023-02-21T05:55:40;10.03;;;6.50;;
78458;SDS011;67753;42.684;23.330;2023-02-21T05:57:42;9.40;;;7.13;;
78458;SDS011;67753;42.684;23.330;2023-02-21T05:59:44;9.20;;;7.10;;
78458;SDS011;67753;42.684;23.330;2023-02-21T06:01:48;10.97;;;6.23;;
78458;SDS011;67753;42.684;23.330;2023-02-21T06:03:52;14.43;;;7.10;;
78458;SDS011;67753;42.684;23.330;2023-02-21T06:05:55;9.90;;;6.50;;
78458;SDS011;67753;42.684;23.330;2023-02-21T06:07:57;9.73;;;6.50;;
78458;SDS011;67753;42.684;23.330;2023-02-21T06:09:59;9.53;;;7.10;;
78458;SDS011;67753;42.684;23.330;2023-02-21T06:12:01;9.63;;;7.00;;
78458;SDS011;67753;42.684;23.330;2023-02-21T06:14:04;9.37;;;8.00;;
78458;SDS011;67753;42.684;23.330;2023-02-21T06:16:07;11.90;;;7.70;;
78458;SDS011;67753;42.684;23.330;2023-02-21T06:18:11;11.93;;;7.20;;
78458;SDS011;67753;42.684;23.330;2023-02-21T06:20:14;11.17;;;6.60;;
78458;SDS011;67753;42.684;23.330;2023-02-21T06:22:17;11.30;;;6.33;;
78458;SDS011;67753;42.684;23.330;2023-02-21T06:24:18;12.07;;;7.10;;
78458;SDS011;67753;42.684;23.330;2023-02-21T06:26:24;10.97;;;6.73;;
78458;SDS011;67753;42.684;23.330;2023-02-21T06:28:27;9.53;;;7.10;;
78458;SDS011;67753;42.684;23.330;2023-02-21T06:30:29;9.67;;;7.30;;
78458;SDS011;67753;42.684;23.330;2023-02-21T06:32:31;8.00;;;5.30;;
78458;SDS011;67753;42.684;23.330;2023-02-21T06:34:34;6.07;;;5.43;;
78458;SDS011;67753;42.684;23.330;2023-02-21T06:36:38;8.43;;;6.27;;
78458;SDS011;67753;42.684;23.330;2023-02-21T06:38:39;7.17;;;5.17;;
78458;SDS011;67753;42.684;23.330;2023-02-21T06:40:44;6.60;;;5.47;;
78458;SDS011;67753;42.684;23.330;2023-02-21T06:42:45;6.13;;;5.20;;
78458;SDS011;67753;42.684;23.330;2023-02-21T06:44:48;6.47;;;5.77;;
78458;SDS011;67753;42.684;23.330;2023-02-21T06:46:50;8.77;;;4.93;;
78458;SDS011;67753;42.684;23.330;2023-02-21T06:48:53;7.97;;;5.00;;
78458;SDS011;67753;42.684;23.330;2023-02-21T06:50:55;5.83;;;5.07;;
78458;SDS011;67753;42.684;23.330;2023-02-21T06:52:59;7.93;;;5.53;;
78458;SDS011;67753;42.684;23.330;2023-02-21T06:55:00;5.77;;;5.17;;
78458;SDS011;67753;42.684;23.330;2023-02-21T06:57:02;7.57;;;5.63;;
78458;SDS011;67753;42.684;23.330;2023-02-21T06:59:04;8.43;;;5.10;;
78458;SDS011;67753;42.684;23.330;2023-02-21T07:01:07;8.50;;;5.33;;
78458;SDS011;67753;42.684;23.330;2023-02-21T07:03:09;7.87;;;5.60;;
78458;SDS011;67753;42.684;23.330;2023-02-21T07:05:11;5.93;;;5.00;;
78458;SDS011;67753;42.684;23.330;2023-02-21T07:07:15;5.47;;;4.80;;
78458;SDS011;67753;42.684;23.330;2023-02-21T07:09:18;10.93;;;5.83;;
78458;SDS011;67753;42.684;23.330;2023-02-21T07:11:20;6.43;;;5.13;;
78458;SDS011;67753;42.684;23.330;2023-02-21T07:13:23;8.00;;;5.23;;
78458;SDS011;67753;42.684;23.330;2023-02-21T07:15:26;10.50;;;6.37;;
78458;SDS011;67753;42.684;23.330;2023-02-21T07:17:29;9.23;;;6.13;;
78458;SDS011;67753;42.684;23.330;2023-02-21T07:19:31;11.87;;;5.90;;
78458;SDS011;67753;42.684;23.330;2023-02-21T07:21:33;11.90;;;6.00;;
78458;SDS011;67753;42.684;23.330;2023-02-21T07:23:35;6.10;;;5.33;;
78458;SDS011;67753;42.684;23.330;2023-02-21T07:25:38;7.90;;;5.20;;
78458;SDS011;67753;42.684;23.330;2023-02-21T07:27:40;10.17;;;5.07;;
78458;SDS011;67753;42.684;23.330;2023-02-21T07:29:42;10.57;;;5.20;;
78458;SDS011;67753;42.684;23.330;2023-02-21T07:31:46;12.47;;;6.07;;
78458;SDS011;67753;42.684;23.330;2023-02-21T07:33:48;9.70;;;6.23;;
78458;SDS011;67753;42.684;23.330;2023-02-21T07:35:50;11.10;;;7.77;;
78458;SDS011;67753;42.684;23.330;2023-02-21T07:37:52;10.60;;;6.90;;
78458;SDS011;67753;42.684;23.330;2023-02-21T07:39:53;9.43;;;7.10;;
78458;SDS011;67753;42.684;23.330;2023-02-21T07:41:57;9.83;;;6.60;;
78458;SDS011;67753;42.684;23.330;2023-02-21T07:43:59;10.53;;;7.47;;
78458;SDS011;67753;42.684;23.330;2023-02-21T07:46:01;16.63;;;7.37;;
78458;SDS011;67753;42.684;23.330;2023-02-21T07:48:03;12.43;;;7.70;;
78458;SDS011;67753;42.684;23.330;2023-02-21T07:50:05;11.47;;;6.80;;
78458;SDS011;67753;42.684;23.330;2023-02-21T07:52:07;10.37;;;7.27;;
78458;SDS011;67753;42.684;23.330;2023-02-21T07:54:09;14.33;;;6.73;;
78458;SDS011;67753;42.684;23.330;2023-02-21T07:56:11;8.33;;;6.57;;
78458;SDS011;67753;42.684;23.330;2023-02-21T07:58:15;7.70;;;6.27;;
78458;SDS011;67753;42.684;23.330;2023-02-21T08:00:17;9.50;;;6.50;;
78458;SDS011;67753;42.684;23.330;2023-02-21T08:02:24;14.53;;;7.23;;
78458;SDS011;67753;42.684;23.330;2023-02-21T08:04:27;12.90;;;6.60;;
78458;SDS011;67753;42.684;23.330;2023-02-21T08:06:29;12.00;;;7.30;;
78458;SDS011;67753;42.684;23.330;2023-02-21T08:08:32;10.27;;;7.00;;
78458;SDS011;67753;42.684;23.330;2023-02-21T08:10:34;8.10;;;6.73;;
78458;SDS011;67753;42.684;23.330;2023-02-21T08:12:36;7.47;;;6.63;;
78458;SDS011;67753;42.684;23.330;2023-02-21T08:14:40;13.73;;;7.30;;
78458;SDS011;67753;42.684;23.330;2023-02-21T08:16:42;13.03;;;7.40;;
78458;SDS011;67753;42.684;23.330;2023-02-21T08:18:45;14.20;;;7.60;;
78458;SDS011;67753;42.684;23.330;2023-02-21T08:20:49;15.00;;;9.00;;
78458;SDS011;67753;42.684;23.330;2023-02-21T08:22:51;14.83;;;8.83;;
78458;SDS011;67753;42.684;23.330;2023-02-21T08:24:55;15.77;;;10.70;;
78458;SDS011;67753;42.684;23.330;2023-02-21T08:26:57;12.50;;;7.90;;
78458;SDS011;67753;42.684;23.330;2023-02-21T08:29:01;11.53;;;8.97;;
78458;SDS011;67753;42.684;23.330;2023-02-21T08:31:05;10.73;;;8.77;;
78458;SDS011;67753;42.684;23.330;2023-02-21T08:33:07;11.67;;;9.33;;
78458;SDS011;67753;42.684;23.330;2023-02-21T08:35:12;12.17;;;8.30;;
78458;SDS011;67753;42.684;23.330;2023-02-21T08:37:15;11.27;;;8.30;;
78458;SDS011;67753;42.684;23.330;2023-02-21T08:39:19;11.70;;;8.33;;
78458;SDS011;67753;42.684;23.330;2023-02-21T08:41:22;13.33;;;8.97;;
78458;SDS011;67753;42.684;23.330;2023-02-21T08:43:24;11.57;;;8.30;;
78458;SDS011;67753;42.684;23.330;2023-02-21T08:45:27;17.07;;;11.40;;
78458;SDS011;67753;42.684;23.330;2023-02-21T08:47:34;15.37;;;10.00;;
78458;SDS011;67753;42.684;23.330;2023-02-21T08:49:36;15.47;;;8.60;;
78458;SDS011;67753;42.684;23.330;2023-02-21T08:51:39;20.30;;;12.23;;
78458;SDS011;67753;42.684;23.330;2023-02-21T08:53:40;12.00;;;8.13;;
78458;SDS011;67753;42.684;23.330;2023-02-21T08:55:43;14.40;;;9.53;;
78458;SDS011;67753;42.684;23.330;2023-02-21T08:57:46;14.70;;;7.77;;
78458;SDS011;67753;42.684;23.330;2023-02-21T08:59:49;13.83;;;10.10;;
78458;SDS011;67753;42.684;23.330;2023-02-21T09:01:51;15.13;;;8.33;;
78458;SDS011;67753;42.684;23.330;2023-02-21T09:03:54;12.80;;;8.23;;
78458;SDS011;67753;42.684;23.330;2023-02-21T09:05:56;11.97;;;8.27;;
78458;SDS011;67753;42.684;23.330;2023-02-21T09:07:59;12.67;;;8.57;;
78458;SDS011;67753;42.684;23.330;2023-02-21T09:10:01;11.70;;;7.70;;
78458;SDS011;67753;42.684;23.330;2023-02-21T09:12:04;12.57;;;8.83;;
78458;SDS011;67753;42.684;23.330;2023-02-21T09:14:07;10.83;;;7.17;;
78458;SDS011;67753;42.684;23.330;2023-02-21T09:16:09;11.10;;;7.77;;
78458;SDS011;67753;42.684;23.330;2023-02-21T09:18:12;9.77;;;7.17;;
78458;SDS011;67753;42.684;23.330;2023-02-21T09:20:18;16.43;;;8.03;;
78458;SDS011;67753;42.684;23.330;2023-02-21T09:22:21;11.17;;;7.83;;
78458;SDS011;67753;42.684;23.330;2023-02-21T09:24:25;8.77;;;7.70;;
78458;SDS011;67753;42.684;23.330;2023-02-21T09:26:28;13.10;;;7.63;;
78458;SDS011;67753;42.684;23.330;2023-02-21T09:28:32;12.17;;;7.77;;
78458;SDS011;67753;42.684;23.330;2023-02-21T09:30:33;11.33;;;8.10;;
78458;SDS011;67753;42.684;23.330;2023-02-21T09:32:35;9.97;;;7.43;;
78458;SDS011;67753;42.684;23.330;2023-02-21T09:34:38;13.17;;;8.47;;
78458;SDS011;67753;42.684;23.330;2023-02-21T09:36:42;14.80;;;8.37;;
78458;SDS011;67753;42.684;23.330;2023-02-21T09:38:44;8.97;;;7.93;;
78458;SDS011;67753;42.684;23.330;2023-02-21T09:40:47;10.63;;;6.77;;
78458;SDS011;67753;42.684;23.330;2023-02-21T09:42:51;10.20;;;6.90;;
78458;SDS011;67753;42.684;23.330;2023-02-21T09:44:55;8.77;;;6.40;;
78458;SDS011;67753;42.684;23.330;2023-02-21T09:46:57;10.10;;;6.53;;
78458;SDS011;67753;42.684;23.330;2023-02-21T09:49:03;13.00;;;7.20;;
78458;SDS011;67753;42.684;23.330;2023-02-21T09:51:10;11.37;;;7.07;;
78458;SDS011;67753;42.684;23.330;2023-02-21T09:53:18;11.63;;;7.13;;
78458;SDS011;67753;42.684;23.330;2023-02-21T09:55:28;8.40;;;6.80;;
78458;SDS011;67753;42.684;23.330;2023-02-21T09:57:33;12.67;;;7.60;;
78458;SDS011;67753;42.684;23.330;2023-02-21T09:59:36;11.43;;;7.17;;
78458;SDS011;67753;42.684;23.330;2023-02-21T10:01:42;12.53;;;7.50;;
78458;SDS011;67753;42.684;23.330;2023-02-21T10:03:58;8.07;;;6.07;;
78458;SDS011;67753;42.684;23.330;2023-02-21T10:06:17;10.63;;;6.40;;
78458;SDS011;67753;42.684;23.330;2023-02-21T10:08:32;10.50;;;6.57;;
78458;SDS011;67753;42.684;23.330;2023-02-21T10:10:42;12.17;;;8.70;;
78458;SDS011;67753;42.684;23.330;2023-02-21T10:12:50;11.80;;;7.88;;
78458;SDS011;67753;42.684;23.330;2023-02-21T10:17:31;9.98;;;7.07;;
78458;SDS011;67753;42.684;23.330;2023-02-21T10:19:39;12.60;;;8.98;;
78458;SDS011;67753;42.684;23.330;2023-02-21T10:21:44;13.30;;;8.75;;
78458;SDS011;67753;42.684;23.330;2023-02-21T10:23:50;8.98;;;6.30;;
78458;SDS011;67753;42.684;23.330;2023-02-21T10:25:58;7.53;;;6.70;;
78458;SDS011;67753;42.684;23.330;2023-02-21T10:28:07;11.68;;;7.07;;
78458;SDS011;67753;42.684;23.330;2023-02-21T10:30:15;6.93;;;6.23;;
78458;SDS011;67753;42.684;23.330;2023-02-21T10:32:25;6.67;;;5.90;;
78458;SDS011;67753;42.684;23.330;2023-02-21T10:34:27;6.27;;;5.60;;
78458;SDS011;67753;42.684;23.330;2023-02-21T10:36:32;6.70;;;5.50;;
78458;SDS011;67753;42.684;23.330;2023-02-21T10:38:35;6.50;;;4.37;;
78458;SDS011;67753;42.684;23.330;2023-02-21T10:40:41;5.93;;;3.30;;
78458;SDS011;67753;42.684;23.330;2023-02-21T10:42:46;3.70;;;2.50;;
78458;SDS011;67753;42.684;23.330;2023-02-21T10:44:53;2.40;;;2.20;;
78458;SDS011;67753;42.684;23.330;2023-02-21T10:46:59;3.50;;;2.07;;
78458;SDS011;67753;42.684;23.330;2023-02-21T10:49:12;2.13;;;2.03;;
78458;SDS011;67753;42.684;23.330;2023-02-21T10:51:28;3.07;;;2.20;;
78458;SDS011;67753;42.684;23.330;2023-02-21T10:53:32;3.77;;;3.10;;
78458;SDS011;67753;42.684;23.330;2023-02-21T10:55:36;4.33;;;3.53;;
78458;SDS011;67753;42.684;23.330;2023-02-21T10:57:40;4.50;;;2.97;;
78458;SDS011;67753;42.684;23.330;2023-02-21T10:59:44;2.63;;;2.43;;
78458;SDS011;67753;42.684;23.330;2023-02-21T11:01:48;2.47;;;2.00;;
78458;SDS011;67753;42.684;23.330;2023-02-21T11:03:52;3.57;;;2.27;;
78458;SDS011;67753;42.684;23.330;2023-02-21T11:05:56;2.47;;;2.27;;
78458;SDS011;67753;42.684;23.330;2023-02-21T11:08:01;2.20;;;2.00;;
78458;SDS011;67753;42.684;23.330;2023-02-21T11:10:23;5.60;;;2.60;;
78458;SDS011;67753;42.684;23.330;2023-02-21T11:12:28;3.17;;;2.87;;
78458;SDS011;67753;42.684;23.330;2023-02-21T11:14:33;2.77;;;2.30;;
78458;SDS011;67753;42.684;23.330;2023-02-21T11:16:35;2.97;;;2.03;;
78458;SDS011;67753;42.684;23.330;2023-02-21T11:18:37;3.10;;;2.10;;
78458;SDS011;67753;42.684;23.330;2023-02-21T11:20:40;3.03;;;2.00;;
78458;SDS011;67753;42.684;23.330;2023-02-21T11:22:42;3.00;;;2.10;;
78458;SDS011;67753;42.684;23.330;2023-02-21T11:24:49;4.00;;;3.57;;
78458;SDS011;67753;42.684;23.330;2023-02-21T11:27:04;3.60;;;2.60;;
78458;SDS011;67753;42.684;23.330;2023-02-21T11:29:07;6.47;;;5.40;;
78458;SDS011;67753;42.684;23.330;2023-02-21T11:31:14;4.03;;;3.23;;
78458;SDS011;67753;42.684;23.330;2023-02-21T11:33:23;4.10;;;2.30;;
78458;SDS011;67753;42.684;23.330;2023-02-21T11:35:26;2.87;;;1.80;;
78458;SDS011;67753;42.684;23.330;2023-02-21T11:37:31;2.90;;;2.03;;
78458;SDS011;67753;42.684;23.330;2023-02-21T11:39:34;2.60;;;2.00;;
78458;SDS011;67753;42.684;23.330;2023-02-21T11:41:38;3.17;;;2.07;;
78458;SDS011;67753;42.684;23.330;2023-02-21T11:43:46;2.33;;;2.03;;
78458;SDS011;67753;42.684;23.330;2023-02-21T11:48:34;2.40;;;2.20;;
78458;SDS011;67753;42.684;23.330;2023-02-21T11:50:39;2.97;;;2.08;;
78458;SDS011;67753;42.684;23.330;2023-02-21T11:52:47;3.38;;;3.08;;
78458;SDS011;67753;42.684;23.330;2023-02-21T11:54:52;2.05;;;1.95;;
78458;SDS011;67753;42.684;23.330;2023-02-21T11:56:58;2.70;;;1.93;;
78458;SDS011;67753;42.684;23.330;2023-02-21T11:59:09;2.00;;;1.90;;
78458;SDS011;67753;42.684;23.330;2023-02-21T12:01:25;2.22;;;2.03;;
78458;SDS011;67753;42.684;23.330;2023-02-21T12:03:37;2.30;;;2.10;;
78458;SDS011;67753;42.684;23.330;2023-02-21T12:06:02;3.17;;;2.20;;
78458;SDS011;67753;42.684;23.330;2023-02-21T12:10:47;5.15;;;2.08;;
78458;SDS011;67753;42.684;23.330;2023-02-21T12:12:55;4.30;;;2.10;;
78458;SDS011;67753;42.684;23.330;2023-02-21T12:15:15;3.95;;;1.88;;
78458;SDS011;67753;42.684;23.330;2023-02-21T12:17:31;2.47;;;2.10;;
78458;SDS011;67753;42.684;23.330;2023-02-21T12:20:00;2.03;;;1.93;;
78458;SDS011;67753;42.684;23.330;2023-02-21T12:22:11;2.78;;;2.50;;
78458;SDS011;67753;42.684;23.330;2023-02-21T12:24:28;4.70;;;4.30;;
78458;SDS011;67753;42.684;23.330;2023-02-21T12:26:54;3.15;;;2.95;;
78458;SDS011;67753;42.684;23.330;2023-02-21T12:29:03;4.10;;;3.80;;
78458;SDS011;67753;42.684;23.330;2023-02-21T12:31:23;3.13;;;2.60;;
78458;SDS011;67753;42.684;23.330;2023-02-21T12:33:41;3.45;;;2.80;;
78458;SDS011;67753;42.684;23.330;2023-02-21T12:38:23;3.13;;;2.75;;
78458;SDS011;67753;42.684;23.330;2023-02-21T12:40:33;3.30;;;3.10;;
78458;SDS011;67753;42.684;23.330;2023-02-21T12:45:27;2.40;;;2.03;;
78458;SDS011;67753;42.684;23.330;2023-02-21T12:47:44;4.13;;;2.00;;
78458;SDS011;67753;42.684;23.330;2023-02-21T12:49:56;7.05;;;2.58;;